Terminal Aerodrome Forecast
Issued by NWS

Home | Current Version | Previous Version | Text Only | Print | Product List | Glossary On
Versions: 1 2 3 4 5 6 7 8 9 10 11 12 13 14 15
000
FTUS46 KLOX 260537
TAFPRB
TAF
KPRB 260537Z 2606/2706 32010KT P6SM SCT200
     FM261200 34006KT P6SM BKN025
     FM261700 32012KT P6SM SCT200
     FM262100 31015G20KT P6SM SCT200
     FM270400 31008KT P6SM SCT200=

USA.gov is the U.S. government's official web portal to all federal, state and local government web resources and services.